createdAt,value
2022-12-18T00:02:12.749Z,16.02
2022-12-18T00:04:39.567Z,14.85
2022-12-18T00:07:06.460Z,14.35
2022-12-18T00:09:39.522Z,14.68
2022-12-18T00:14:45.835Z,14.60
2022-12-18T00:17:12.479Z,12.15
2022-12-18T00:19:41.672Z,13.90
2022-12-18T00:22:08.265Z,12.32
2022-12-18T00:24:34.824Z,12.07
2022-12-18T00:27:01.406Z,12.63
2022-12-18T00:29:28.133Z,14.45
2022-12-18T00:31:54.738Z,12.73
2022-12-18T00:34:21.388Z,13.05
2022-12-18T00:36:49.005Z,14.02
2022-12-18T00:39:15.693Z,13.68
2022-12-18T00:42:03.437Z,12.75
2022-12-18T00:44:31.260Z,13.75
2022-12-18T00:46:57.868Z,13.30
2022-12-18T00:49:24.787Z,12.65
2022-12-18T00:51:51.497Z,12.27
2022-12-18T00:54:18.795Z,12.30
2022-12-18T00:56:49.481Z,9.95
2022-12-18T00:59:19.913Z,13.27
2022-12-18T01:01:47.692Z,11.18
2022-12-18T01:04:14.939Z,12.90
2022-12-18T01:06:41.591Z,10.85
2022-12-18T01:09:08.123Z,13.75
2022-12-18T01:11:37.179Z,12.40
2022-12-18T01:14:04.915Z,12.68
2022-12-18T01:16:31.615Z,12.30
2022-12-18T01:18:58.220Z,11.27
2022-12-18T01:21:27.453Z,11.68
2022-12-18T01:23:55.809Z,12.93
2022-12-18T01:26:25.195Z,11.98
2022-12-18T01:28:52.185Z,10.93
2022-12-18T01:31:31.559Z,12.23
2022-12-18T01:34:00.967Z,11.35
2022-12-18T01:36:32.524Z,12.57
2022-12-18T01:39:16.053Z,10.88
2022-12-18T01:42:02.279Z,10.32
2022-12-18T01:45:01.753Z,12.23
2022-12-18T01:47:46.296Z,13.23
2022-12-18T01:50:22.699Z,10.60
2022-12-18T01:53:06.723Z,11.32
2022-12-18T01:55:39.664Z,11.27
2022-12-18T01:58:06.415Z,11.73
2022-12-18T02:00:33.049Z,10.27
2022-12-18T02:02:59.813Z,9.82
2022-12-18T02:05:54.255Z,10.27
2022-12-18T02:08:32.095Z,11.32
2022-12-18T02:11:20.139Z,11.90
2022-12-18T02:14:14.014Z,12.77
2022-12-18T02:17:00.630Z,11.77
2022-12-18T02:19:48.965Z,12.02
2022-12-18T02:22:15.492Z,11.85
2022-12-18T02:25:06.421Z,10.00
2022-12-18T02:27:37.460Z,10.07
2022-12-18T02:30:06.452Z,10.63
2022-12-18T02:32:39.564Z,10.77
2022-12-18T02:35:08.387Z,11.57
2022-12-18T02:37:36.806Z,11.65
2022-12-18T02:40:06.844Z,12.05
2022-12-18T02:42:36.110Z,11.63
2022-12-18T02:45:06.006Z,11.82
2022-12-18T02:47:38.199Z,12.98
2022-12-18T02:50:20.505Z,11.60
2022-12-18T02:53:14.699Z,12.18
2022-12-18T02:56:06.859Z,10.13
2022-12-18T02:58:45.395Z,9.50
2022-12-18T03:01:34.875Z,10.23
2022-12-18T03:04:08.658Z,10.05
2022-12-18T03:06:44.431Z,10.07
2022-12-18T03:09:18.629Z,12.52
2022-12-18T03:12:10.077Z,9.60
2022-12-18T03:14:39.196Z,11.05
2022-12-18T03:17:15.537Z,9.98
2022-12-18T03:19:44.082Z,11.15
2022-12-18T03:22:11.268Z,12.13
2022-12-18T03:24:47.181Z,11.50
2022-12-18T03:27:18.368Z,12.32
2022-12-18T03:32:37.114Z,11.70
2022-12-18T03:35:06.426Z,13.45
2022-12-18T03:37:37.431Z,10.57
2022-12-18T03:40:06.014Z,10.23
2022-12-18T03:42:45.804Z,11.82
2022-12-18T03:45:25.501Z,12.32
2022-12-18T03:48:10.066Z,11.30
2022-12-18T03:50:52.493Z,12.07
2022-12-18T03:53:40.104Z,11.70
2022-12-18T03:56:10.369Z,12.43
2022-12-18T03:58:42.616Z,13.25
2022-12-18T04:01:29.497Z,12.02
2022-12-18T04:03:59.324Z,11.93
2022-12-18T04:06:27.129Z,10.57
2022-12-18T04:08:54.233Z,12.52
2022-12-18T04:11:23.425Z,11.15
2022-12-18T04:13:50.018Z,11.57
2022-12-18T04:16:22.721Z,11.02
2022-12-18T04:18:53.030Z,12.63
2022-12-18T04:21:20.848Z,12.60
2022-12-18T04:23:49.052Z,11.38
2022-12-18T04:26:17.627Z,11.63
2022-12-18T04:29:00.188Z,11.80
2022-12-18T04:31:28.525Z,12.07
2022-12-18T04:33:55.798Z,11.75
2022-12-18T04:36:23.180Z,11.23
2022-12-18T04:38:53.266Z,9.27
2022-12-18T04:41:20.816Z,9.93
2022-12-18T04:43:48.921Z,11.85
2022-12-18T04:46:15.736Z,12.15
2022-12-18T04:48:42.442Z,11.35
2022-12-18T04:51:11.234Z,10.90
2022-12-18T04:53:39.901Z,11.32
2022-12-18T04:56:08.421Z,12.18
2022-12-18T04:58:35.191Z,11.95
2022-12-18T05:01:01.907Z,11.27
2022-12-18T05:03:29.962Z,10.73
2022-12-18T05:05:56.752Z,11.10
2022-12-18T05:08:23.420Z,10.75
2022-12-18T05:10:50.151Z,10.60
2022-12-18T05:13:16.836Z,8.80
2022-12-18T05:15:43.432Z,11.43
2022-12-18T05:18:10.140Z,10.02
2022-12-18T05:20:36.667Z,9.55
2022-12-18T05:23:03.296Z,9.75
2022-12-18T05:25:29.894Z,9.95
2022-12-18T05:27:56.611Z,11.13
2022-12-18T05:30:23.898Z,8.57
2022-12-18T05:32:50.518Z,9.13
2022-12-18T05:35:17.104Z,11.93
2022-12-18T05:37:43.728Z,10.95
2022-12-18T05:40:11.044Z,10.13
2022-12-18T05:42:37.813Z,9.68
2022-12-18T05:45:05.594Z,10.35
2022-12-18T05:47:33.476Z,10.35
2022-12-18T05:50:00.193Z,9.55
2022-12-18T05:52:26.808Z,9.82
2022-12-18T05:54:53.341Z,10.65
2022-12-18T05:57:19.963Z,9.27
2022-12-18T05:59:46.573Z,11.15
2022-12-18T06:02:13.196Z,10.63
2022-12-18T06:04:39.829Z,10.50
2022-12-18T06:07:06.502Z,11.27
2022-12-18T06:09:33.278Z,9.85
2022-12-18T06:11:59.886Z,11.32
2022-12-18T06:14:26.512Z,10.68
2022-12-18T06:16:53.298Z,10.35
2022-12-18T06:19:19.969Z,10.80
2022-12-18T06:21:47.571Z,9.82
2022-12-18T06:24:14.175Z,11.48
2022-12-18T06:26:40.810Z,10.07
2022-12-18T06:29:07.446Z,10.88
2022-12-18T06:31:34.357Z,11.50
2022-12-18T06:34:04.422Z,9.57
2022-12-18T06:36:31.732Z,9.57
2022-12-18T06:38:58.532Z,10.70
2022-12-18T06:41:25.192Z,10.02
2022-12-18T06:43:55.560Z,9.75
2022-12-18T06:46:24.830Z,13.68
2022-12-18T06:48:51.518Z,15.43
2022-12-18T06:51:22.743Z,12.48
2022-12-18T06:53:50.595Z,11.05
2022-12-18T06:56:17.301Z,10.82
2022-12-18T06:58:44.535Z,10.40
2022-12-18T07:01:13.010Z,11.20
2022-12-18T07:03:41.768Z,11.13
2022-12-18T07:06:18.834Z,11.05
2022-12-18T07:08:46.337Z,8.82
2022-12-18T07:11:13.299Z,10.68
2022-12-18T07:13:40.263Z,10.85
2022-12-18T07:16:18.382Z,10.63
2022-12-18T07:18:49.291Z,10.07
2022-12-18T07:21:18.124Z,11.73
2022-12-18T07:23:47.309Z,10.45
2022-12-18T07:26:15.344Z,10.05
2022-12-18T07:28:43.341Z,10.07
2022-12-18T07:31:15.510Z,10.93
2022-12-18T07:33:43.073Z,10.38
2022-12-18T07:36:11.021Z,10.48
2022-12-18T07:38:38.415Z,10.95
2022-12-18T07:41:12.634Z,11.80
2022-12-18T07:43:40.440Z,11.13
2022-12-18T07:46:10.084Z,10.07
2022-12-18T07:48:36.737Z,10.40
2022-12-18T07:51:06.284Z,10.82
2022-12-18T07:53:34.533Z,10.20
2022-12-18T07:56:26.391Z,11.07
2022-12-18T07:58:53.246Z,10.32
2022-12-18T08:01:19.991Z,12.07
2022-12-18T08:03:47.942Z,12.68
2022-12-18T08:06:15.131Z,9.88
2022-12-18T08:08:43.110Z,11.40
2022-12-18T08:11:09.918Z,11.45
2022-12-18T08:13:36.685Z,11.68
2022-12-18T08:16:09.706Z,14.55
2022-12-18T08:18:38.032Z,11.90
2022-12-18T08:21:16.054Z,11.20
2022-12-18T08:23:43.824Z,11.98
2022-12-18T08:26:12.649Z,11.20
2022-12-18T08:28:39.625Z,11.85
2022-12-18T08:31:06.893Z,10.80
2022-12-18T08:33:33.823Z,11.00
2022-12-18T08:36:01.230Z,10.65
2022-12-18T08:38:28.586Z,11.43
2022-12-18T08:41:11.878Z,13.45
2022-12-18T08:43:57.376Z,11.18
2022-12-18T08:46:26.879Z,10.48
2022-12-18T08:48:55.019Z,10.80
2022-12-18T08:51:21.631Z,12.05
2022-12-18T08:53:48.148Z,11.52
2022-12-18T08:56:15.238Z,11.40
2022-12-18T08:58:42.584Z,11.43
2022-12-18T09:01:11.844Z,9.10
2022-12-18T09:03:39.851Z,10.10
2022-12-18T09:06:07.391Z,10.63
2022-12-18T09:08:38.023Z,11.05
2022-12-18T09:11:05.106Z,8.45
2022-12-18T09:13:32.013Z,9.02
2022-12-18T09:15:58.616Z,9.75
2022-12-18T09:18:26.017Z,8.70
2022-12-18T09:20:53.794Z,9.30
2022-12-18T09:23:21.420Z,8.98
2022-12-18T09:25:48.220Z,9.23
2022-12-18T09:28:17.379Z,9.02
2022-12-18T09:30:47.777Z,10.95
2022-12-18T09:33:14.664Z,10.73
2022-12-18T09:35:42.892Z,9.57
2022-12-18T09:38:13.864Z,9.68
2022-12-18T09:40:55.292Z,9.48
2022-12-18T09:43:38.293Z,9.63
2022-12-18T09:46:09.748Z,9.88
2022-12-18T09:51:13.134Z,10.25
2022-12-18T09:53:42.049Z,9.20
2022-12-18T09:56:17.030Z,9.90
2022-12-18T09:58:58.179Z,9.40
2022-12-18T10:01:27.097Z,9.35
2022-12-18T10:03:57.304Z,8.75
2022-12-18T10:06:56.016Z,10.88
2022-12-18T10:10:02.083Z,10.98
2022-12-18T10:12:47.415Z,11.73
2022-12-18T10:15:52.526Z,9.95
2022-12-18T10:18:54.691Z,9.55
2022-12-18T10:21:31.039Z,11.15
2022-12-18T10:24:09.974Z,10.30
2022-12-18T10:26:36.603Z,10.48
2022-12-18T10:29:17.795Z,9.75
2022-12-18T10:31:44.450Z,10.25
2022-12-18T10:34:17.126Z,12.07
2022-12-18T10:36:43.762Z,10.30
2022-12-18T10:39:16.508Z,11.57
2022-12-18T10:41:43.096Z,11.85
2022-12-18T10:44:24.289Z,12.20
2022-12-18T10:47:10.221Z,11.18
2022-12-18T10:49:47.872Z,12.13
2022-12-18T10:52:25.551Z,12.75
2022-12-18T10:54:55.751Z,11.35
2022-12-18T10:57:42.417Z,11.88
2022-12-18T11:00:30.614Z,13.32
2022-12-18T11:02:58.131Z,11.95
2022-12-18T11:05:33.111Z,10.63
2022-12-18T11:08:00.778Z,9.02
2022-12-18T11:10:37.678Z,11.60
2022-12-18T11:13:32.190Z,10.40
2022-12-18T11:16:00.208Z,10.95
2022-12-18T11:18:34.421Z,11.43
2022-12-18T11:21:09.489Z,10.52
2022-12-18T11:23:38.277Z,12.10
2022-12-18T11:26:07.119Z,11.32
2022-12-18T11:28:40.270Z,10.70
2022-12-18T11:31:16.289Z,11.48
2022-12-18T11:34:26.895Z,9.73
2022-12-18T11:36:45.005Z,10.13
2022-12-18T11:39:44.617Z,8.75
2022-12-18T11:42:28.157Z,10.20
2022-12-18T11:45:04.303Z,10.60
2022-12-18T11:47:58.648Z,8.75
2022-12-18T11:50:29.413Z,8.98
2022-12-18T11:52:59.239Z,11.27
2022-12-18T11:55:51.247Z,11.50
2022-12-18T11:58:31.350Z,12.40
2022-12-18T12:01:43.840Z,10.95
2022-12-18T12:04:47.116Z,11.05
2022-12-18T12:07:42.092Z,11.20
2022-12-18T12:10:14.702Z,11.50
2022-12-18T12:13:21.415Z,12.60
2022-12-18T12:16:02.910Z,14.20
2022-12-18T12:18:44.565Z,12.98
2022-12-18T12:23:59.655Z,13.07
2022-12-18T12:26:50.494Z,13.07
2022-12-18T12:29:21.415Z,10.73
2022-12-18T12:32:18.314Z,11.77
2022-12-18T12:35:09.287Z,13.88
2022-12-18T12:37:51.947Z,14.30
2022-12-18T12:40:50.240Z,11.77
2022-12-18T12:43:31.584Z,14.40
2022-12-18T12:46:06.112Z,14.27
2022-12-18T12:48:37.603Z,13.63
2022-12-18T12:51:13.465Z,11.25
2022-12-18T12:53:42.566Z,12.50
2022-12-18T12:56:12.787Z,11.55
2022-12-18T12:59:00.803Z,11.77
2022-12-18T13:01:42.064Z,11.57
2022-12-18T13:04:33.896Z,11.73
2022-12-18T13:07:00.937Z,11.55
2022-12-18T13:09:31.687Z,10.20
2022-12-18T13:12:28.390Z,11.10
2022-12-18T13:15:23.343Z,11.88
2022-12-18T13:17:50.029Z,10.63
2022-12-18T13:20:17.333Z,9.75
2022-12-18T13:22:47.416Z,11.00
2022-12-18T13:25:43.992Z,11.38
2022-12-18T13:28:14.613Z,11.55
2022-12-18T13:30:48.491Z,10.65
2022-12-18T13:33:15.695Z,11.85
2022-12-18T13:35:42.893Z,9.85
2022-12-18T13:38:31.848Z,13.63
2022-12-18T13:41:29.058Z,11.95
2022-12-18T13:44:11.195Z,15.25
2022-12-18T13:46:50.679Z,12.45
2022-12-18T13:49:31.497Z,11.88
2022-12-18T13:51:58.406Z,11.60
2022-12-18T13:54:25.184Z,10.95
2022-12-18T13:56:51.792Z,10.93
2022-12-18T13:59:22.650Z,11.43
2022-12-18T14:01:53.700Z,11.50
2022-12-18T14:04:34.142Z,10.73
2022-12-18T14:07:07.329Z,11.02
2022-12-18T14:09:42.990Z,11.23
2022-12-18T14:12:37.807Z,9.80
2022-12-18T14:15:07.189Z,11.27
2022-12-18T14:17:34.585Z,11.57
2022-12-18T14:20:02.744Z,13.55
2022-12-18T14:22:30.973Z,12.05
2022-12-18T14:25:17.374Z,12.23
2022-12-18T14:27:47.390Z,10.95
2022-12-18T14:30:28.752Z,10.50
2022-12-18T14:33:23.177Z,11.20
2022-12-18T14:36:02.584Z,11.40
2022-12-18T14:38:32.034Z,11.32
2022-12-18T14:41:04.444Z,10.88
2022-12-18T14:43:35.481Z,10.48
2022-12-18T14:46:03.911Z,10.98
2022-12-18T14:48:38.274Z,12.55
2022-12-18T14:51:19.813Z,11.80
2022-12-18T14:56:26.651Z,12.95
2022-12-18T14:58:55.983Z,13.02
2022-12-18T15:01:40.474Z,12.18
2022-12-18T15:04:24.214Z,10.48
2022-12-18T15:07:10.036Z,11.27
2022-12-18T15:09:42.211Z,11.02
2022-12-18T15:12:34.109Z,11.23
2022-12-18T15:15:00.661Z,12.95
2022-12-18T15:17:28.587Z,13.30
2022-12-18T15:20:02.135Z,11.80
2022-12-18T15:22:31.425Z,11.75
2022-12-18T15:24:59.503Z,13.15
2022-12-18T15:27:29.098Z,11.70
2022-12-18T15:30:08.728Z,11.77
2022-12-18T15:32:42.640Z,10.95
2022-12-18T15:35:09.199Z,12.90
2022-12-18T15:37:35.911Z,13.32
2022-12-18T15:40:03.207Z,11.98
2022-12-18T15:42:49.253Z,13.65
2022-12-18T15:45:16.168Z,12.60
2022-12-18T15:47:44.928Z,13.27
2022-12-18T15:50:11.663Z,14.15
2022-12-18T15:52:45.046Z,12.15
2022-12-18T15:55:32.321Z,12.30
2022-12-18T15:57:58.926Z,13.45
2022-12-18T16:00:25.951Z,13.60
2022-12-18T16:02:52.852Z,14.10
2022-12-18T16:05:21.322Z,13.82
2022-12-18T16:07:48.009Z,15.60
2022-12-18T16:10:14.913Z,14.55
2022-12-18T16:12:43.343Z,12.63
2022-12-18T16:15:14.284Z,11.93
2022-12-18T16:17:41.481Z,12.75
2022-12-18T16:20:19.751Z,14.13
2022-12-18T16:22:47.142Z,12.10
2022-12-18T16:25:27.341Z,11.98
2022-12-18T16:27:56.071Z,9.60
2022-12-18T16:30:29.481Z,11.88
2022-12-18T16:33:00.926Z,8.88
2022-12-18T16:35:28.202Z,10.98
2022-12-18T16:37:54.887Z,10.77
2022-12-18T16:40:21.781Z,11.02
2022-12-18T16:42:48.561Z,11.50
2022-12-18T16:45:18.544Z,10.35
2022-12-18T16:47:45.675Z,11.73
2022-12-18T16:50:12.444Z,9.70
2022-12-18T16:52:39.403Z,9.73
2022-12-18T16:55:06.699Z,12.70
2022-12-18T16:57:33.426Z,17.48
2022-12-18T17:00:05.182Z,18.98
2022-12-18T17:02:35.087Z,15.52
2022-12-18T17:05:01.827Z,13.63
2022-12-18T17:07:28.645Z,12.18
2022-12-18T17:09:55.643Z,15.20
2022-12-18T17:12:22.782Z,14.15
2022-12-18T17:14:49.390Z,14.15
2022-12-18T17:17:23.966Z,14.30
2022-12-18T17:19:52.045Z,16.38
2022-12-18T17:22:18.960Z,15.75
2022-12-18T17:24:47.160Z,14.63
2022-12-18T17:27:13.993Z,13.65
2022-12-18T17:29:46.757Z,12.75
2022-12-18T17:32:14.959Z,11.40
2022-12-18T17:34:41.538Z,11.02
2022-12-18T17:37:08.780Z,11.90
2022-12-18T17:39:35.384Z,10.90
2022-12-18T17:42:01.936Z,11.35
2022-12-18T17:44:28.548Z,12.10
2022-12-18T17:46:55.567Z,13.50
2022-12-18T17:49:22.287Z,12.55
2022-12-18T17:51:48.940Z,11.35
2022-12-18T17:54:15.558Z,10.40
2022-12-18T17:56:42.197Z,10.85
2022-12-18T17:59:09.440Z,11.60
2022-12-18T18:01:42.368Z,10.45
2022-12-18T18:04:11.032Z,10.18
2022-12-18T18:06:38.902Z,11.48
2022-12-18T18:09:08.146Z,13.25
2022-12-18T18:12:00.838Z,12.75
2022-12-18T18:14:27.690Z,12.50
2022-12-18T18:16:54.604Z,10.82
2022-12-18T18:19:24.872Z,11.98
2022-12-18T18:21:53.240Z,11.90
2022-12-18T18:24:23.325Z,13.43
2022-12-18T18:26:50.257Z,14.35
2022-12-18T18:29:20.040Z,15.05
2022-12-18T18:31:47.630Z,17.73
2022-12-18T18:34:22.885Z,16.85
2022-12-18T18:36:49.615Z,15.93
2022-12-18T18:39:16.851Z,17.23
2022-12-18T18:41:43.904Z,13.65
2022-12-18T18:44:15.201Z,14.23
2022-12-18T18:46:41.852Z,14.63
2022-12-18T18:49:08.585Z,14.63
2022-12-18T18:51:35.624Z,13.30
2022-12-18T18:54:02.886Z,14.13
2022-12-18T18:59:17.169Z,12.60
2022-12-18T19:01:44.373Z,12.23
2022-12-18T19:04:11.113Z,13.45
2022-12-18T19:06:37.765Z,14.27
2022-12-18T19:09:06.527Z,17.52
2022-12-18T19:11:52.313Z,21.27
2022-12-18T19:14:18.992Z,15.35
2022-12-18T19:16:45.806Z,15.07
2022-12-18T19:19:13.415Z,17.17
2022-12-18T19:21:40.726Z,18.98
2022-12-18T19:24:07.752Z,20.85
2022-12-18T19:26:36.308Z,13.95
2022-12-18T19:29:08.532Z,17.42
2022-12-18T19:31:37.302Z,16.30
2022-12-18T19:34:08.102Z,17.15
2022-12-18T19:39:12.160Z,16.58
2022-12-18T19:41:39.100Z,15.35
2022-12-18T19:44:08.168Z,14.27
2022-12-18T19:46:36.065Z,14.65
2022-12-18T19:49:04.419Z,15.90
2022-12-18T19:51:32.159Z,13.25
2022-12-18T19:54:01.897Z,16.77
2022-12-18T19:56:34.583Z,15.23
2022-12-18T19:59:02.778Z,15.70
2022-12-18T20:01:30.720Z,15.80
2022-12-18T20:03:58.899Z,14.88
2022-12-18T20:06:46.273Z,16.30
2022-12-18T20:09:12.815Z,14.75
2022-12-18T20:11:41.785Z,15.35
2022-12-18T20:14:13.369Z,15.45
2022-12-18T20:16:40.969Z,15.07
2022-12-18T20:19:08.562Z,13.88
2022-12-18T20:21:35.940Z,16.13
2022-12-18T20:24:02.459Z,14.10
2022-12-18T20:26:32.712Z,15.52
2022-12-18T20:28:59.575Z,13.07
2022-12-18T20:31:26.380Z,15.60
2022-12-18T20:33:57.640Z,17.10
2022-12-18T20:36:28.263Z,16.55
2022-12-18T20:38:59.364Z,16.88
2022-12-18T20:41:37.243Z,14.80
2022-12-18T20:44:10.426Z,15.90
2022-12-18T20:46:50.419Z,16.98
2022-12-18T20:49:16.936Z,16.83
2022-12-18T20:51:43.513Z,15.55
2022-12-18T20:54:11.920Z,15.30
2022-12-18T20:56:38.706Z,15.18
2022-12-18T20:59:05.272Z,15.52
2022-12-18T21:01:31.946Z,16.13
2022-12-18T21:03:59.186Z,16.13
2022-12-18T21:06:26.431Z,13.52
2022-12-18T21:08:52.985Z,17.42
2022-12-18T21:11:37.926Z,14.45
2022-12-18T21:14:13.762Z,17.30
2022-12-18T21:16:40.671Z,16.20
2022-12-18T21:19:07.374Z,13.45
2022-12-18T21:21:38.577Z,16.52
2022-12-18T21:24:07.353Z,14.77
2022-12-18T21:26:34.260Z,16.45
2022-12-18T21:29:03.899Z,14.85
2022-12-18T21:31:33.317Z,16.15
2022-12-18T21:34:02.487Z,15.45
2022-12-18T21:36:30.251Z,16.15
2022-12-18T21:38:58.487Z,18.05
2022-12-18T21:41:45.031Z,15.13
2022-12-18T21:44:17.341Z,16.67
2022-12-18T21:46:51.374Z,15.15
2022-12-18T21:49:21.759Z,16.35
2022-12-18T21:51:54.559Z,17.20
2022-12-18T21:54:22.188Z,17.35
2022-12-18T21:56:51.906Z,15.75
2022-12-18T21:59:21.088Z,16.50
2022-12-18T22:01:48.728Z,17.70
2022-12-18T22:04:17.052Z,16.83
2022-12-18T22:06:44.732Z,15.30
2022-12-18T22:09:13.695Z,16.60
2022-12-18T22:11:40.558Z,16.30
2022-12-18T22:14:07.411Z,16.00
2022-12-18T22:16:34.209Z,14.20
2022-12-18T22:19:06.378Z,15.60
2022-12-18T22:21:36.149Z,15.30
2022-12-18T22:24:05.850Z,16.88
2022-12-18T22:26:39.767Z,15.63
2022-12-18T22:29:31.745Z,13.23
2022-12-18T22:32:00.304Z,16.95
2022-12-18T22:34:27.156Z,16.23
2022-12-18T22:36:53.862Z,15.73
2022-12-18T22:39:26.234Z,16.73
2022-12-18T22:41:55.576Z,17.02
2022-12-18T22:44:25.589Z,15.85
2022-12-18T22:47:07.082Z,16.73
2022-12-18T22:49:35.712Z,16.20
2022-12-18T22:52:07.331Z,16.02
2022-12-18T22:57:00.552Z,14.20
2022-12-18T22:59:27.195Z,16.08
2022-12-18T23:01:54.534Z,15.27
2022-12-18T23:04:36.316Z,14.55
2022-12-18T23:07:06.724Z,15.05
2022-12-18T23:09:33.642Z,15.57
2022-12-18T23:12:01.770Z,17.38
2022-12-18T23:14:29.559Z,17.85
2022-12-18T23:16:56.447Z,17.05
2022-12-18T23:19:23.852Z,15.55
2022-12-18T23:21:51.209Z,13.00
2022-12-18T23:24:18.249Z,16.10
2022-12-18T23:26:44.914Z,15.65
2022-12-18T23:29:11.460Z,15.95
2022-12-18T23:31:39.186Z,15.18
2022-12-18T23:34:06.784Z,15.63
2022-12-18T23:36:45.523Z,16.35
2022-12-18T23:39:15.340Z,16.02
2022-12-18T23:41:56.645Z,15.63
2022-12-18T23:44:23.375Z,15.43
2022-12-18T23:46:50.148Z,16.70
2022-12-18T23:49:16.874Z,15.25
2022-12-18T23:51:43.668Z,16.80
2022-12-18T23:54:10.603Z,17.50
2022-12-18T23:56:37.241Z,15.40
2022-12-18T23:59:04.065Z,14.57
